Time;durP1;ratioP1;P1;durP2;ratioP2;P2;SDS_P1;SDS_P2;PMS_P1;PMS_P2;Temp;Humidity;BMP_temperature;BMP_pressure;BME280_temperature;BME280_humidity;BME280_pressure;Samples;Min_cycle;Max_cycle;Signal;HPM_P1;HPM_P2
2021/12/03 00:01:17;;;;;;;1.45;0.95;;;;;;;;;;5057614;28;20078;-62
2021/12/03 00:03:44;;;;;;;6.55;1.50;;;;;;;;;;5061210;28;20040;-62
2021/12/03 00:06:11;;;;;;;2.80;1.20;;;;;;;;;;5058534;28;20045;-62
2021/12/03 00:08:37;;;;;;;6.25;1.35;;;;;;;;;;5060459;28;20106;-62
2021/12/03 00:11:04;;;;;;;2.13;1.10;;;;;;;;;;5056261;28;20040;-62
2021/12/03 00:13:31;;;;;;;4.93;1.70;;;;;;;;;;5059724;28;20032;-62
2021/12/03 00:15:58;;;;;;;7.57;1.38;;;;;;;;;;5062997;28;20132;-61
2021/12/03 00:18:25;;;;;;;5.45;1.58;;;;;;;;;;5061564;28;20055;-61
2021/12/03 00:20:51;;;;;;;2.15;0.95;;;;;;;;;;5062648;28;20505;-61
2021/12/03 00:23:18;;;;;;;5.32;1.42;;;;;;;;;;5061559;28;20123;-62
2021/12/03 00:25:44;;;;;;;4.75;1.63;;;;;;;;;;5070871;28;20048;-62
2021/12/03 00:28:11;;;;;;;6.63;1.70;;;;;;;;;;5068932;28;20041;-61
2021/12/03 00:30:37;;;;;;;3.72;1.30;;;;;;;;;;5062154;28;20094;-62
2021/12/03 00:33:04;;;;;;;3.15;1.15;;;;;;;;;;5065847;28;20047;-62
2021/12/03 00:35:31;;;;;;;2.35;1.15;;;;;;;;;;5069056;28;20579;-62
2021/12/03 00:37:57;;;;;;;1.67;0.80;;;;;;;;;;5065617;28;20199;-62
2021/12/03 00:40:29;;;;;;;1.40;0.70;;;;;;;;;;5067087;28;20089;-62
2021/12/03 00:42:55;;;;;;;4.20;1.60;;;;;;;;;;5067585;28;20033;-62
2021/12/03 00:45:21;;;;;;;2.67;0.90;;;;;;;;;;5067827;28;20040;-62
2021/12/03 00:47:48;;;;;;;5.45;1.27;;;;;;;;;;5068194;28;20132;-62
2021/12/03 00:50:16;;;;;;;4.25;1.27;;;;;;;;;;5068027;28;20413;-62
2021/12/03 00:52:42;;;;;;;2.70;1.20;;;;;;;;;;5070806;28;20121;-62
2021/12/03 00:55:09;;;;;;;7.85;1.65;;;;;;;;;;5066255;28;20606;-61
2021/12/03 00:57:35;;;;;;;3.50;1.20;;;;;;;;;;5070404;28;20033;-62
2021/12/03 01:00:03;;;;;;;3.70;1.20;;;;;;;;;;5067089;28;20036;-61
2021/12/03 01:02:29;;;;;;;5.75;1.05;;;;;;;;;;5066960;28;20119;-62
2021/12/03 01:04:55;;;;;;;3.78;1.85;;;;;;;;;;5066609;28;20059;-62
2021/12/03 01:07:22;;;;;;;3.25;1.00;;;;;;;;;;5066738;28;20123;-61
2021/12/03 01:09:48;;;;;;;4.75;1.15;;;;;;;;;;5068697;28;20040;-62
2021/12/03 01:12:14;;;;;;;4.00;1.27;;;;;;;;;;5068710;28;20043;-62
2021/12/03 01:14:41;;;;;;;3.80;1.48;;;;;;;;;;5066742;28;20052;-62
2021/12/03 01:17:07;;;;;;;3.38;1.20;;;;;;;;;;5064156;28;20631;-62
2021/12/03 01:19:33;;;;;;;6.53;2.30;;;;;;;;;;5063328;28;20036;-62
2021/12/03 01:21:59;;;;;;;1.30;0.70;;;;;;;;;;5067001;28;20522;-62
2021/12/03 01:24:25;;;;;;;4.95;1.17;;;;;;;;;;5065379;28;20498;-61
2021/12/03 01:26:54;;;;;;;7.03;1.75;;;;;;;;;;5068172;28;20420;-61
2021/12/03 01:29:20;;;;;;;2.20;0.90;;;;;;;;;;5062349;28;20064;-62
2021/12/03 01:31:47;;;;;;;5.93;1.40;;;;;;;;;;5064487;28;20239;-62
2021/12/03 01:34:14;;;;;;;3.25;1.20;;;;;;;;;;5064411;28;20076;-62
2021/12/03 01:36:40;;;;;;;4.30;1.58;;;;;;;;;;5066090;28;20105;-61
2021/12/03 01:39:07;;;;;;;3.00;1.20;;;;;;;;;;5067458;28;20040;-62
2021/12/03 01:41:33;;;;;;;3.17;1.23;;;;;;;;;;5067851;28;20036;-62
2021/12/03 01:44:02;;;;;;;2.58;0.90;;;;;;;;;;5065907;28;20119;-62
2021/12/03 01:46:29;;;;;;;3.03;1.10;;;;;;;;;;5064088;28;20076;-62
2021/12/03 01:48:56;;;;;;;8.02;1.20;;;;;;;;;;5066385;28;20087;-62
2021/12/03 01:51:22;;;;;;;2.40;1.08;;;;;;;;;;5065810;28;20036;-61
2021/12/03 01:54:04;;;;;;;2.65;1.23;;;;;;;;;;5093228;28;20086;-61
2021/12/03 01:56:31;;;;;;;2.22;1.20;;;;;;;;;;5069371;28;20067;-62
2021/12/03 01:58:58;;;;;;;5.00;1.58;;;;;;;;;;5068425;28;20040;-61
2021/12/03 02:01:26;;;;;;;3.67;1.42;;;;;;;;;;5067481;28;20518;-62
2021/12/03 02:03:53;;;;;;;2.58;1.35;;;;;;;;;;5066701;28;20063;-62
2021/12/03 02:06:19;;;;;;;4.97;1.85;;;;;;;;;;5067250;28;20029;-61
2021/12/03 02:08:45;;;;;;;22.70;2.45;;;;;;;;;;5068990;28;20041;-61
2021/12/03 02:11:12;;;;;;;4.22;1.30;;;;;;;;;;5066347;28;20086;-62
2021/12/03 02:13:38;;;;;;;6.18;1.35;;;;;;;;;;5065880;28;20044;-62
2021/12/03 02:16:06;;;;;;;4.93;2.08;;;;;;;;;;5065152;28;20051;-62
2021/12/03 02:18:32;;;;;;;5.22;1.33;;;;;;;;;;5067698;28;20462;-62
2021/12/03 02:21:00;;;;;;;8.20;1.35;;;;;;;;;;5065118;28;20422;-62
2021/12/03 02:23:28;;;;;;;3.80;1.25;;;;;;;;;;5078192;28;20048;-62
2021/12/03 02:25:54;;;;;;;3.25;1.45;;;;;;;;;;5064254;28;20566;-62
2021/12/03 02:28:22;;;;;;;2.92;1.05;;;;;;;;;;5079168;28;20418;-62
2021/12/03 02:30:48;;;;;;;4.90;1.52;;;;;;;;;;5067182;28;20043;-62
2021/12/03 02:33:15;;;;;;;6.20;1.35;;;;;;;;;;5080459;28;20044;-62
2021/12/03 02:35:43;;;;;;;3.22;1.27;;;;;;;;;;5064741;28;20473;-62
2021/12/03 02:38:09;;;;;;;3.10;1.50;;;;;;;;;;5067805;28;20525;-62
2021/12/03 02:40:35;;;;;;;3.75;1.70;;;;;;;;;;5063920;28;20506;-62
2021/12/03 02:43:02;;;;;;;2.45;1.10;;;;;;;;;;5068205;28;20036;-62
2021/12/03 02:45:28;;;;;;;5.15;1.25;;;;;;;;;;5067307;28;20044;-62
2021/12/03 02:47:55;;;;;;;3.58;0.88;;;;;;;;;;5062630;28;20036;-61
2021/12/03 02:50:21;;;;;;;3.75;1.20;;;;;;;;;;5065928;28;20040;-62
2021/12/03 02:52:48;;;;;;;4.35;1.13;;;;;;;;;;5063670;28;20052;-62
2021/12/03 02:55:14;;;;;;;6.10;1.27;;;;;;;;;;5065469;28;20043;-62
2021/12/03 02:57:40;;;;;;;4.47;1.35;;;;;;;;;;5066876;28;20082;-62
2021/12/03 03:00:11;;;;;;;2.83;1.75;;;;;;;;;;5067206;28;20505;-62
2021/12/03 03:02:40;;;;;;;4.30;1.25;;;;;;;;;;5063067;28;20321;-61
2021/12/03 03:05:07;;;;;;;4.53;1.55;;;;;;;;;;5065619;28;20043;-62
2021/12/03 03:07:33;;;;;;;2.97;1.40;;;;;;;;;;5062428;28;20097;-62
2021/12/03 03:09:59;;;;;;;13.00;1.80;;;;;;;;;;5066075;28;20036;-62
2021/12/03 03:12:26;;;;;;;2.03;0.90;;;;;;;;;;5067127;28;20037;-62
2021/12/03 03:14:54;;;;;;;4.10;1.40;;;;;;;;;;5065949;28;20385;-62
2021/12/03 03:17:22;;;;;;;3.05;1.35;;;;;;;;;;5064139;28;20041;-62
2021/12/03 03:19:49;;;;;;;6.13;1.85;;;;;;;;;;5066221;28;20505;-62
2021/12/03 03:22:16;;;;;;;5.55;1.23;;;;;;;;;;5066247;28;20044;-62
2021/12/03 03:24:42;;;;;;;2.80;1.23;;;;;;;;;;5064671;28;20040;-62
2021/12/03 03:27:08;;;;;;;20.10;2.75;;;;;;;;;;5061201;28;20540;-61
2021/12/03 03:29:35;;;;;;;3.17;1.52;;;;;;;;;;5067086;28;20040;-62
2021/12/03 03:32:02;;;;;;;7.45;1.63;;;;;;;;;;5060522;28;20040;-62
2021/12/03 03:34:28;;;;;;;6.38;1.92;;;;;;;;;;5065796;28;20037;-62
2021/12/03 03:36:54;;;;;;;6.10;1.73;;;;;;;;;;5065440;28;20037;-62
2021/12/03 03:39:20;;;;;;;4.45;1.83;;;;;;;;;;5064752;28;20033;-62
2021/12/03 03:41:47;;;;;;;3.08;1.58;;;;;;;;;;5065734;28;20048;-62
2021/12/03 03:44:15;;;;;;;7.70;2.03;;;;;;;;;;5065230;28;20075;-62
2021/12/03 03:46:42;;;;;;;6.68;2.42;;;;;;;;;;5061902;28;20076;-62
2021/12/03 03:49:08;;;;;;;31.10;2.90;;;;;;;;;;5063005;28;20120;-62
2021/12/03 03:51:34;;;;;;;5.90;2.45;;;;;;;;;;5064717;28;20032;-62
2021/12/03 03:54:00;;;;;;;4.90;2.10;;;;;;;;;;5065363;28;20064;-62
2021/12/03 03:56:27;;;;;;;6.35;2.20;;;;;;;;;;5063988;28;20037;-62
2021/12/03 03:58:54;;;;;;;3.30;1.70;;;;;;;;;;5065231;28;20051;-62
2021/12/03 04:01:20;;;;;;;4.75;2.33;;;;;;;;;;5067859;28;20093;-62
2021/12/03 04:03:47;;;;;;;3.28;1.92;;;;;;;;;;5070787;28;20433;-61
2021/12/03 04:06:14;;;;;;;7.22;3.40;;;;;;;;;;5066776;28;20040;-62
2021/12/03 04:08:41;;;;;;;4.38;2.30;;;;;;;;;;5069138;28;20079;-62
2021/12/03 04:11:07;;;;;;;8.35;2.08;;;;;;;;;;5071504;28;20671;-61
2021/12/03 04:13:33;;;;;;;9.57;2.95;;;;;;;;;;5069318;28;20090;-62
2021/12/03 04:16:00;;;;;;;4.00;1.70;;;;;;;;;;5068444;28;20056;-62
2021/12/03 04:18:27;;;;;;;7.82;2.53;;;;;;;;;;5067646;28;20037;-62
2021/12/03 04:20:53;;;;;;;7.32;2.47;;;;;;;;;;5068370;28;20093;-62
2021/12/03 04:23:20;;;;;;;4.05;2.40;;;;;;;;;;5071524;28;20028;-62
2021/12/03 04:25:47;;;;;;;7.00;2.47;;;;;;;;;;5063291;28;20059;-61
2021/12/03 04:28:14;;;;;;;8.70;2.72;;;;;;;;;;5067976;28;20037;-62
2021/12/03 04:30:41;;;;;;;5.10;2.75;;;;;;;;;;5067261;28;20418;-62
2021/12/03 04:33:08;;;;;;;7.75;3.05;;;;;;;;;;5065491;28;20541;-62
2021/12/03 04:35:34;;;;;;;4.57;2.20;;;;;;;;;;5062168;28;20434;-62
2021/12/03 04:38:00;;;;;;;6.35;2.60;;;;;;;;;;5068890;28;20466;-62
2021/12/03 04:40:27;;;;;;;4.53;2.83;;;;;;;;;;5063271;28;20442;-62
2021/12/03 04:42:53;;;;;;;5.60;2.75;;;;;;;;;;5070036;28;20102;-62
2021/12/03 04:45:21;;;;;;;4.57;2.65;;;;;;;;;;5065825;28;20047;-62
2021/12/03 04:47:49;;;;;;;6.38;2.60;;;;;;;;;;5067106;28;20044;-62
2021/12/03 04:50:16;;;;;;;7.10;2.65;;;;;;;;;;5067342;28;20278;-62
2021/12/03 04:52:43;;;;;;;7.28;2.45;;;;;;;;;;5067424;28;20064;-62
2021/12/03 04:55:10;;;;;;;5.97;2.50;;;;;;;;;;5066811;28;20040;-62
2021/12/03 04:57:39;;;;;;;5.07;2.78;;;;;;;;;;5067751;28;20393;-62
2021/12/03 05:00:07;;;;;;;7.35;3.00;;;;;;;;;;5068287;28;20202;-62
2021/12/03 05:02:33;;;;;;;6.47;2.30;;;;;;;;;;5067167;28;20499;-62
2021/12/03 05:05:03;;;;;;;6.15;2.53;;;;;;;;;;5066161;28;20166;-62
2021/12/03 05:09:58;;;;;;;9.85;3.08;;;;;;;;;;5065954;28;20068;-61
2021/12/03 05:12:25;;;;;;;4.90;2.90;;;;;;;;;;5066508;28;20032;-61
2021/12/03 05:14:51;;;;;;;5.80;2.88;;;;;;;;;;5069079;28;20055;-62
2021/12/03 05:17:17;;;;;;;7.93;3.92;;;;;;;;;;5066766;28;20032;-62
2021/12/03 05:19:44;;;;;;;5.65;2.67;;;;;;;;;;5066830;28;20036;-62
2021/12/03 05:22:12;;;;;;;7.07;2.80;;;;;;;;;;5067666;28;20434;-61
2021/12/03 05:24:38;;;;;;;4.38;2.55;;;;;;;;;;5067463;28;20106;-62
2021/12/03 05:27:04;;;;;;;9.50;2.67;;;;;;;;;;5066516;28;20044;-62
2021/12/03 05:29:31;;;;;;;5.53;2.47;;;;;;;;;;5065538;28;20449;-61
2021/12/03 05:31:57;;;;;;;6.07;2.40;;;;;;;;;;5062321;28;20474;-62
2021/12/03 05:34:25;;;;;;;11.40;3.00;;;;;;;;;;5065201;28;20037;-62
2021/12/03 05:36:51;;;;;;;9.40;3.13;;;;;;;;;;5067421;28;20043;-62
2021/12/03 05:39:17;;;;;;;7.28;3.10;;;;;;;;;;5069093;28;20543;-62
2021/12/03 05:41:43;;;;;;;9.52;3.55;;;;;;;;;;5099088;27;20072;-62
2021/12/03 05:44:10;;;;;;;7.75;3.63;;;;;;;;;;5067596;28;20048;-62
2021/12/03 05:46:36;;;;;;;11.35;4.05;;;;;;;;;;5067267;28;20046;-62
2021/12/03 05:49:02;;;;;;;12.15;6.45;;;;;;;;;;5067580;28;20080;-62
2021/12/03 05:51:30;;;;;;;13.27;6.05;;;;;;;;;;5063760;28;20422;-62
2021/12/03 05:53:56;;;;;;;9.40;5.38;;;;;;;;;;5065865;28;20050;-62
2021/12/03 05:56:22;;;;;;;7.10;4.78;;;;;;;;;;5059335;28;20040;-62
2021/12/03 05:58:49;;;;;;;7.38;3.65;;;;;;;;;;5073900;28;20045;-62
2021/12/03 06:01:15;;;;;;;5.68;2.85;;;;;;;;;;5059719;28;20068;-61
2021/12/03 06:03:41;;;;;;;10.65;3.85;;;;;;;;;;5056521;28;20298;-61
2021/12/03 06:06:07;;;;;;;5.93;2.38;;;;;;;;;;5060796;28;20048;-62
2021/12/03 06:08:33;;;;;;;4.60;2.53;;;;;;;;;;5060285;28;20394;-62
2021/12/03 06:10:59;;;;;;;8.00;3.42;;;;;;;;;;5059332;28;20037;-62
2021/12/03 06:13:25;;;;;;;5.95;3.03;;;;;;;;;;5062103;28;20202;-62
2021/12/03 06:15:51;;;;;;;6.95;2.78;;;;;;;;;;5058921;28;20321;-62
2021/12/03 06:18:18;;;;;;;9.18;2.20;;;;;;;;;;5064562;28;20110;-62
2021/12/03 06:20:44;;;;;;;5.45;2.90;;;;;;;;;;5067613;28;20469;-62
2021/12/03 06:23:10;;;;;;;6.72;3.03;;;;;;;;;;5066848;28;20045;-62
2021/12/03 06:25:36;;;;;;;5.97;2.88;;;;;;;;;;5067429;28;20037;-62
2021/12/03 06:28:02;;;;;;;9.68;3.88;;;;;;;;;;5068187;28;20045;-62
2021/12/03 06:30:29;;;;;;;10.48;4.00;;;;;;;;;;5065781;28;21471;-62
2021/12/03 06:32:55;;;;;;;10.60;5.20;;;;;;;;;;5055847;28;20112;-61
2021/12/03 06:35:21;;;;;;;12.18;5.80;;;;;;;;;;5056544;28;20121;-62
2021/12/03 06:37:48;;;;;;;9.20;4.03;;;;;;;;;;5061661;28;20762;-62
2021/12/03 06:40:16;;;;;;;8.48;4.65;;;;;;;;;;5063079;28;20045;-62
2021/12/03 06:42:43;;;;;;;10.48;4.88;;;;;;;;;;5061698;28;20036;-62
2021/12/03 06:45:09;;;;;;;9.40;4.65;;;;;;;;;;5063808;28;20041;-62
2021/12/03 06:47:35;;;;;;;10.75;4.30;;;;;;;;;;5058807;28;20371;-62
2021/12/03 06:50:03;;;;;;;8.50;3.95;;;;;;;;;;5059638;28;20040;-62
2021/12/03 06:52:31;;;;;;;7.57;3.20;;;;;;;;;;5062984;28;20040;-62
2021/12/03 06:55:00;;;;;;;10.02;3.55;;;;;;;;;;5062121;28;20119;-62
2021/12/03 06:57:26;;;;;;;6.82;4.15;;;;;;;;;;5063929;28;20041;-62
2021/12/03 06:59:52;;;;;;;14.25;4.72;;;;;;;;;;5059654;28;20041;-62
2021/12/03 07:02:18;;;;;;;9.10;5.22;;;;;;;;;;5058675;28;20417;-62
2021/12/03 07:04:44;;;;;;;11.00;5.35;;;;;;;;;;5066199;28;20532;-61
2021/12/03 07:07:11;;;;;;;8.90;5.22;;;;;;;;;;5062249;28;20044;-62
2021/12/03 07:09:37;;;;;;;15.07;5.22;;;;;;;;;;5064558;28;20036;-62
2021/12/03 07:12:05;;;;;;;10.02;4.85;;;;;;;;;;5067145;28;20097;-62
2021/12/03 07:14:31;;;;;;;8.57;4.28;;;;;;;;;;5060050;28;21197;-62
2021/12/03 07:16:59;;;;;;;9.27;3.95;;;;;;;;;;5066469;28;20055;-62
2021/12/03 07:19:25;;;;;;;9.35;3.22;;;;;;;;;;5059283;28;20436;-62
2021/12/03 07:21:51;;;;;;;7.22;3.85;;;;;;;;;;5054514;28;20053;-62
2021/12/03 07:24:17;;;;;;;9.32;4.13;;;;;;;;;;5063352;28;20114;-62
2021/12/03 07:26:43;;;;;;;10.18;5.13;;;;;;;;;;5061441;28;20035;-62
2021/12/03 07:29:10;;;;;;;11.40;5.15;;;;;;;;;;5064128;28;20048;-62
2021/12/03 07:31:36;;;;;;;11.45;4.63;;;;;;;;;;5060413;28;20071;-62
2021/12/03 07:34:02;;;;;;;10.63;4.95;;;;;;;;;;5064716;28;20044;-62
2021/12/03 07:36:28;;;;;;;9.52;5.18;;;;;;;;;;5061607;28;20387;-62
2021/12/03 07:38:54;;;;;;;10.93;4.70;;;;;;;;;;5066053;28;20055;-62
2021/12/03 07:41:20;;;;;;;10.65;6.80;;;;;;;;;;5057600;28;20068;-62
2021/12/03 07:43:47;;;;;;;7.68;5.35;;;;;;;;;;5059123;28;20055;-62
2021/12/03 07:46:15;;;;;;;10.30;5.95;;;;;;;;;;5051640;28;20079;-62
2021/12/03 07:48:46;;;;;;;13.07;5.65;;;;;;;;;;5056647;28;20037;-62
2021/12/03 07:51:13;;;;;;;8.85;4.80;;;;;;;;;;5060862;28;20472;-62
2021/12/03 07:53:39;;;;;;;7.40;4.50;;;;;;;;;;5064798;28;20029;-62
2021/12/03 07:56:05;;;;;;;8.35;4.25;;;;;;;;;;5064072;28;20040;-61
2021/12/03 07:58:31;;;;;;;10.73;4.90;;;;;;;;;;5065620;28;20037;-62
2021/12/03 08:00:58;;;;;;;7.18;3.63;;;;;;;;;;5067697;28;20451;-62
2021/12/03 08:03:24;;;;;;;6.40;3.88;;;;;;;;;;5062197;28;20278;-62
2021/12/03 08:05:50;;;;;;;7.00;3.20;;;;;;;;;;5063463;28;20082;-62
2021/12/03 08:08:22;;;;;;;16.48;3.17;;;;;;;;;;5067697;28;20040;-62
2021/12/03 08:10:49;;;;;;;7.57;3.17;;;;;;;;;;5061594;28;20048;-62
2021/12/03 08:13:15;;;;;;;7.63;2.78;;;;;;;;;;5064519;28;20035;-62
2021/12/03 08:15:41;;;;;;;5.85;3.08;;;;;;;;;;5059754;28;20106;-62
2021/12/03 08:18:08;;;;;;;5.90;2.63;;;;;;;;;;5063554;28;20123;-62
2021/12/03 08:20:34;;;;;;;7.78;2.88;;;;;;;;;;5065642;28;20036;-62
2021/12/03 08:23:01;;;;;;;9.43;2.90;;;;;;;;;;5065669;28;20041;-62
2021/12/03 08:25:28;;;;;;;7.22;2.97;;;;;;;;;;5065961;28;20440;-62
2021/12/03 08:27:54;;;;;;;8.10;3.42;;;;;;;;;;5064597;28;20557;-62
2021/12/03 08:30:20;;;;;;;8.82;3.03;;;;;;;;;;5063991;28;20048;-62
2021/12/03 08:32:48;;;;;;;9.05;3.25;;;;;;;;;;5065490;28;20063;-62
2021/12/03 08:35:14;;;;;;;6.07;3.08;;;;;;;;;;5063386;28;20042;-62
2021/12/03 08:37:44;;;;;;;10.15;3.67;;;;;;;;;;5064318;28;20033;-62
2021/12/03 08:40:11;;;;;;;7.95;3.25;;;;;;;;;;5064109;28;20051;-62
2021/12/03 08:42:37;;;;;;;7.35;3.28;;;;;;;;;;5061864;28;20535;-62
2021/12/03 08:45:04;;;;;;;8.57;4.25;;;;;;;;;;5064224;28;20072;-62
2021/12/03 08:47:31;;;;;;;5.47;2.88;;;;;;;;;;5066048;28;20330;-62
2021/12/03 08:50:00;;;;;;;7.82;3.15;;;;;;;;;;5068321;28;20032;-62
2021/12/03 08:54:58;;;;;;;5.10;2.45;;;;;;;;;;5066527;28;20043;-62
2021/12/03 08:57:32;;;;;;;4.80;1.80;;;;;;;;;;5070713;28;20482;-62
2021/12/03 09:00:03;;;;;;;7.60;2.50;;;;;;;;;;5067353;28;20064;-62
2021/12/03 09:02:29;;;;;;;8.40;2.78;;;;;;;;;;5068913;28;20039;-62
2021/12/03 09:04:56;;;;;;;6.97;3.05;;;;;;;;;;5068075;28;20562;-62
2021/12/03 09:07:22;;;;;;;9.38;4.32;;;;;;;;;;5067420;28;20044;-62
2021/12/03 09:09:48;;;;;;;11.63;3.88;;;;;;;;;;5070087;28;20068;-62
2021/12/03 09:12:14;;;;;;;8.60;4.78;;;;;;;;;;5065277;28;20029;-62
2021/12/03 09:14:53;;;;;;;9.40;4.55;;;;;;;;;;5068465;28;20105;-62
2021/12/03 09:25:18;;;;;;;11.20;5.63;;;;;;;;;;5066968;28;20379;-61
2021/12/03 09:27:44;;;;;;;8.65;5.05;;;;;;;;;;5067821;28;20381;-62
2021/12/03 09:30:13;;;;;;;10.38;5.05;;;;;;;;;;5067980;28;20051;-62
2021/12/03 09:32:41;;;;;;;12.45;6.15;;;;;;;;;;5065711;28;20042;-62
2021/12/03 09:35:09;;;;;;;13.73;6.28;;;;;;;;;;5069195;28;20036;-62
2021/12/03 09:37:35;;;;;;;9.57;4.68;;;;;;;;;;5066847;28;20048;-62
2021/12/03 09:40:06;;;;;;;13.10;4.43;;;;;;;;;;5068822;28;20045;-62
2021/12/03 09:42:38;;;;;;;9.70;4.38;;;;;;;;;;5065039;28;20100;-62
2021/12/03 09:45:06;;;;;;;11.88;4.70;;;;;;;;;;5066431;28;20104;-62
2021/12/03 09:47:32;;;;;;;7.32;4.28;;;;;;;;;;5064603;28;20043;-62
2021/12/03 09:50:01;;;;;;;11.82;4.38;;;;;;;;;;5066525;28;20043;-62
2021/12/03 09:55:01;;;;;;;14.63;5.65;;;;;;;;;;5061467;28;20048;-62
2021/12/03 10:00:17;;;;;;;12.30;4.22;;;;;;;;;;5065127;28;20059;-62
2021/12/03 10:03:00;;;;;;;10.30;4.97;;;;;;;;;;5067759;28;20068;-63
2021/12/03 10:18:41;;;;;;;11.70;4.22;;;;;;;;;;5060789;28;20406;-63
2021/12/03 10:21:17;;;;;;;11.65;5.00;;;;;;;;;;5065360;28;20066;-62
2021/12/03 10:24:24;;;;;;;16.45;4.68;;;;;;;;;;5061760;28;20070;-62
2021/12/03 10:29:39;;;;;;;11.40;5.07;;;;;;;;;;5064581;28;20040;-62
2021/12/03 10:35:30;;;;;;;12.30;4.40;;;;;;;;;;5060113;28;20041;-62
2021/12/03 10:45:59;;;;;;;10.65;5.18;;;;;;;;;;5065600;28;20036;-62
2021/12/03 10:48:41;;;;;;;12.45;5.18;;;;;;;;;;5064762;28;20067;-62
2021/12/03 10:51:25;;;;;;;9.98;3.97;;;;;;;;;;5067193;28;20032;-62
2021/12/03 11:16:36;;;;;;;9.13;4.47;;;;;;;;;;5065020;28;20060;-62
2021/12/03 11:45:52;;;;;;;8.40;4.70;;;;;;;;;;5061730;28;20051;-63
2021/12/03 12:38:39;;;;;;;13.52;6.80;;;;;;;;;;5058885;28;20554;-63
2021/12/03 13:58:45;;;;;;;9.50;5.22;;;;;;;;;;5061085;28;20033;-63
2021/12/03 14:06:23;;;;;;;9.80;6.00;;;;;;;;;;5061998;28;20047;-63
2021/12/03 14:38:48;;;;;;;13.00;7.53;;;;;;;;;;5058879;28;20047;-62
2021/12/03 14:55:41;;;;;;;11.15;8.18;;;;;;;;;;5060473;28;20611;-63
2021/12/03 14:58:21;;;;;;;15.15;8.90;;;;;;;;;;5056324;28;20048;-63
2021/12/03 15:00:59;;;;;;;14.45;9.35;;;;;;;;;;5061512;28;20521;-62
2021/12/03 15:03:36;;;;;;;18.08;10.60;;;;;;;;;;5057456;28;20055;-62
2021/12/03 15:08:45;;;;;;;17.25;10.25;;;;;;;;;;5063236;28;20525;-63
2021/12/03 15:40:03;;;;;;;22.20;13.32;;;;;;;;;;5061405;28;20044;-63
2021/12/03 16:04:32;;;;;;;16.17;12.25;;;;;;;;;;5063161;28;20037;-62
2021/12/03 16:43:59;;;;;;;17.75;13.23;;;;;;;;;;5053122;28;20464;-62
2021/12/03 16:46:39;;;;;;;16.55;12.18;;;;;;;;;;5054813;28;20242;-63
2021/12/03 16:54:16;;;;;;;19.45;14.10;;;;;;;;;;5058218;28;20373;-62
2021/12/03 16:56:50;;;;;;;18.23;14.15;;;;;;;;;;5051717;28;20071;-63
2021/12/03 16:59:16;;;;;;;17.23;13.90;;;;;;;;;;5052518;28;20045;-63
2021/12/03 17:01:48;;;;;;;16.58;13.13;;;;;;;;;;5053660;28;20049;-62
2021/12/03 17:12:44;;;;;;;16.42;11.90;;;;;;;;;;5040531;28;20037;-62
2021/12/03 17:44:18;;;;;;;15.23;10.52;;;;;;;;;;5057644;28;20469;-62
2021/12/03 17:45:49;;;;;;;15.30;11.48;;;;;;;;;;5058051;28;20419;-62
2021/12/03 17:56:09;;;;;;;19.95;12.40;;;;;;;;;;5057761;28;20049;-62
2021/12/03 17:58:42;;;;;;;14.48;10.43;;;;;;;;;;5057560;28;20044;-62
2021/12/03 18:14:28;;;;;;;16.77;11.82;;;;;;;;;;5068358;28;20086;-62
2021/12/03 18:43:21;;;;;;;18.13;13.23;;;;;;;;;;5063255;28;20517;-62
2021/12/03 18:56:53;;;;;;;27.27;18.45;;;;;;;;;;5058841;28;20141;-62
2021/12/03 18:59:21;;;;;;;22.75;17.65;;;;;;;;;;5055996;28;20048;-62
2021/12/03 19:01:47;;;;;;;22.35;16.48;;;;;;;;;;5060672;28;20044;-62
2021/12/03 19:04:25;;;;;;;22.05;16.55;;;;;;;;;;5056556;28;20041;-62
2021/12/03 19:09:31;;;;;;;25.40;18.80;;;;;;;;;;5056689;28;20056;-62
2021/12/03 19:12:13;;;;;;;28.42;20.13;;;;;;;;;;5062281;28;20036;-62
2021/12/03 19:14:47;;;;;;;24.08;17.08;;;;;;;;;;5055550;28;20057;-62
2021/12/03 19:17:13;;;;;;;23.58;18.23;;;;;;;;;;5060736;28;20070;-62
2021/12/03 19:19:44;;;;;;;26.08;18.40;;;;;;;;;;5045520;28;20143;-62
2021/12/03 19:22:12;;;;;;;25.55;18.90;;;;;;;;;;5066991;28;20202;-63
2021/12/03 19:24:38;;;;;;;30.05;21.77;;;;;;;;;;5059509;28;20040;-62
2021/12/03 19:27:04;;;;;;;36.88;23.42;;;;;;;;;;5055771;28;20052;-63
2021/12/03 19:29:32;;;;;;;33.97;21.48;;;;;;;;;;5060789;28;20498;-63
2021/12/03 19:31:58;;;;;;;36.63;24.10;;;;;;;;;;5056346;28;20039;-63
2021/12/03 19:34:24;;;;;;;28.67;20.83;;;;;;;;;;5058104;28;20044;-63
2021/12/03 19:36:51;;;;;;;33.90;23.35;;;;;;;;;;5056499;28;20071;-62
2021/12/03 19:39:18;;;;;;;33.95;24.55;;;;;;;;;;5060709;28;20044;-63
2021/12/03 19:41:54;;;;;;;38.03;25.33;;;;;;;;;;5057401;28;20403;-62
2021/12/03 19:44:23;;;;;;;38.10;27.13;;;;;;;;;;5057711;28;20040;-63
2021/12/03 19:46:51;;;;;;;41.35;26.25;;;;;;;;;;5062350;28;20048;-62
2021/12/03 19:49:30;;;;;;;35.63;23.65;;;;;;;;;;5060080;28;20394;-63
2021/12/03 19:52:00;;;;;;;39.30;27.50;;;;;;;;;;5057672;28;20041;-62
2021/12/03 19:54:27;;;;;;;38.35;24.17;;;;;;;;;;5061157;28;20040;-63
2021/12/03 19:56:53;;;;;;;42.92;26.77;;;;;;;;;;5058237;28;20043;-63
2021/12/03 19:59:20;;;;;;;41.08;26.50;;;;;;;;;;5061267;28;20045;-63
2021/12/03 20:01:47;;;;;;;43.28;28.13;;;;;;;;;;5057604;28;20076;-63
2021/12/03 20:04:14;;;;;;;43.15;26.05;;;;;;;;;;5063622;28;20876;-62
2021/12/03 20:06:43;;;;;;;42.92;27.73;;;;;;;;;;5060624;28;20371;-63
2021/12/03 20:09:14;;;;;;;42.53;29.02;;;;;;;;;;5057527;28;20101;-63
2021/12/03 20:11:43;;;;;;;43.08;28.35;;;;;;;;;;5057902;28;20045;-63
2021/12/03 20:14:14;;;;;;;46.53;29.58;;;;;;;;;;5055903;28;20045;-63
2021/12/03 20:21:59;;;;;;;43.35;28.13;;;;;;;;;;5020290;28;20057;-63
2021/12/03 20:26:58;;;;;;;46.35;27.75;;;;;;;;;;5017303;28;20053;-63
2021/12/03 20:33:02;;;;;;;46.08;29.88;;;;;;;;;;5031291;28;20351;-63
2021/12/03 20:37:45;;;;;;;49.50;29.70;;;;;;;;;;5016967;28;20629;-63
2021/12/03 20:40:18;;;;;;;42.80;27.00;;;;;;;;;;5020175;28;20038;-63
2021/12/03 20:53:36;;;;;;;46.78;27.85;;;;;;;;;;5026687;28;20099;-62
2021/12/03 20:59:26;;;;;;;42.88;25.55;;;;;;;;;;5022587;28;20400;-63
2021/12/03 21:09:58;;;;;;;45.13;26.25;;;;;;;;;;5025329;28;20449;-63
2021/12/03 21:12:29;;;;;;;38.67;25.98;;;;;;;;;;5022958;28;20400;-63
2021/12/03 21:20:15;;;;;;;40.30;24.73;;;;;;;;;;5062995;28;20052;-62
2021/12/03 21:22:49;;;;;;;42.20;26.48;;;;;;;;;;5062338;28;20040;-63
2021/12/03 21:25:19;;;;;;;45.20;25.42;;;;;;;;;;5093535;28;20052;-62
2021/12/03 21:27:53;;;;;;;39.85;24.88;;;;;;;;;;5058693;28;20431;-63
2021/12/03 21:43:38;;;;;;;42.38;27.02;;;;;;;;;;5060640;28;20636;-63
2021/12/03 21:46:05;;;;;;;47.35;26.25;;;;;;;;;;5060476;28;20086;-63
2021/12/03 21:48:31;;;;;;;41.70;25.90;;;;;;;;;;5062624;28;20036;-62
2021/12/03 21:50:57;;;;;;;41.55;25.40;;;;;;;;;;5065417;28;20561;-63
2021/12/03 21:53:23;;;;;;;41.20;26.00;;;;;;;;;;5058328;28;20420;-63
2021/12/03 21:55:49;;;;;;;42.22;24.63;;;;;;;;;;5058246;28;20496;-63
2021/12/03 21:58:16;;;;;;;42.92;24.67;;;;;;;;;;5060163;28;20036;-63
2021/12/03 22:00:42;;;;;;;44.30;25.75;;;;;;;;;;5057788;28;20114;-63
2021/12/03 22:03:11;;;;;;;43.65;25.65;;;;;;;;;;5058225;28;20040;-62
2021/12/03 22:05:37;;;;;;;39.95;25.90;;;;;;;;;;5059351;28;20615;-63
2021/12/03 22:08:04;;;;;;;40.30;23.65;;;;;;;;;;5059388;28;20068;-62
2021/12/03 22:10:30;;;;;;;42.78;26.60;;;;;;;;;;5060578;28;20059;-63
2021/12/03 22:12:57;;;;;;;37.97;25.58;;;;;;;;;;5061865;28;20041;-63
2021/12/03 22:15:23;;;;;;;39.78;25.30;;;;;;;;;;5061491;28;20255;-63
2021/12/03 22:17:49;;;;;;;36.03;23.92;;;;;;;;;;5061775;28;20125;-63
2021/12/03 22:20:15;;;;;;;39.58;25.77;;;;;;;;;;5059861;28;20037;-63
2021/12/03 22:22:42;;;;;;;42.17;25.30;;;;;;;;;;5064196;28;20144;-63
2021/12/03 22:25:08;;;;;;;41.75;26.25;;;;;;;;;;5060729;28;20052;-63
2021/12/03 22:27:34;;;;;;;44.70;24.98;;;;;;;;;;5060276;28;20037;-63
2021/12/03 22:30:00;;;;;;;39.90;23.88;;;;;;;;;;5054010;28;20052;-63
2021/12/03 22:32:26;;;;;;;45.75;25.52;;;;;;;;;;5056582;28;20052;-63
2021/12/03 22:34:52;;;;;;;37.00;21.95;;;;;;;;;;5059609;28;20062;-63
2021/12/03 22:37:19;;;;;;;36.22;22.83;;;;;;;;;;5062741;28;20044;-62
2021/12/03 22:39:46;;;;;;;38.80;23.00;;;;;;;;;;5061529;28;20044;-63
2021/12/03 22:42:12;;;;;;;36.00;24.25;;;;;;;;;;5058030;28;20076;-63
2021/12/03 22:44:38;;;;;;;36.00;22.70;;;;;;;;;;5062351;28;20130;-63
2021/12/03 22:52:16;;;;;;;43.08;24.80;;;;;;;;;;5060913;28;20028;-63
2021/12/03 22:54:46;;;;;;;34.95;22.50;;;;;;;;;;5064795;28;20036;-63
2021/12/03 22:57:17;;;;;;;38.35;24.10;;;;;;;;;;5049307;28;20395;-63
2021/12/03 22:59:43;;;;;;;38.28;22.95;;;;;;;;;;5060450;28;20045;-63
2021/12/03 23:02:10;;;;;;;38.67;24.13;;;;;;;;;;5061618;28;20045;-63
2021/12/03 23:04:40;;;;;;;39.05;24.27;;;;;;;;;;5063601;28;20482;-63
2021/12/03 23:07:10;;;;;;;35.25;22.33;;;;;;;;;;5067981;28;20037;-63
2021/12/03 23:09:36;;;;;;;40.50;25.58;;;;;;;;;;5062975;28;20033;-63
2021/12/03 23:12:03;;;;;;;40.53;24.40;;;;;;;;;;5065079;28;20043;-63
2021/12/03 23:14:30;;;;;;;42.30;24.95;;;;;;;;;;5064731;28;20095;-63
2021/12/03 23:16:57;;;;;;;51.83;23.50;;;;;;;;;;5060864;28;20053;-63
2021/12/03 23:19:29;;;;;;;39.30;24.15;;;;;;;;;;5066565;28;20075;-63
2021/12/03 23:21:55;;;;;;;36.85;25.02;;;;;;;;;;5065360;28;20044;-63